createdAt,value
2022-08-11T00:02:37.032Z,20.40
2022-08-11T00:05:08.996Z,20.30
2022-08-11T00:07:44.819Z,20.20
2022-08-11T00:10:15.559Z,20.20
2022-08-11T00:12:45.396Z,20.20
2022-08-11T00:15:16.035Z,20.10
2022-08-11T00:17:46.278Z,20.10
2022-08-11T00:20:17.131Z,20.00
2022-08-11T00:22:48.038Z,20.00
2022-08-11T00:25:18.292Z,19.90
2022-08-11T00:27:48.250Z,19.90
2022-08-11T00:30:18.187Z,19.80
2022-08-11T00:32:54.875Z,19.80
2022-08-11T00:35:50.819Z,19.80
2022-08-11T00:38:16.958Z,19.80
2022-08-11T00:40:57.872Z,19.80
2022-08-11T00:43:42.853Z,19.80
2022-08-11T00:46:19.219Z,19.70
2022-08-11T00:49:00.389Z,19.60
2022-08-11T00:51:53.168Z,19.60
2022-08-11T00:54:59.553Z,19.50
2022-08-11T00:57:45.396Z,19.50
2022-08-11T01:00:15.772Z,19.40
2022-08-11T01:03:19.843Z,19.30
2022-08-11T01:06:01.252Z,19.30
2022-08-11T01:09:22.004Z,19.30
2022-08-11T01:12:06.136Z,19.20
2022-08-11T01:15:08.232Z,19.10
2022-08-11T01:18:17.428Z,19.10
2022-08-11T01:21:24.272Z,19.20
2022-08-11T01:24:44.023Z,19.20
2022-08-11T01:27:44.503Z,19.20
2022-08-11T01:30:48.809Z,19.20
2022-08-11T01:34:10.846Z,19.10
2022-08-11T01:37:03.631Z,19.10
2022-08-11T01:40:05.074Z,19.10
2022-08-11T01:43:24.600Z,19.00
2022-08-11T01:45:58.250Z,19.00
2022-08-11T01:48:41.593Z,19.00
2022-08-11T01:51:20.990Z,19.00
2022-08-11T01:53:57.262Z,19.00
2022-08-11T01:56:41.202Z,18.90
2022-08-11T01:59:18.539Z,18.90
2022-08-11T02:02:42.856Z,18.90
2022-08-11T02:05:21.137Z,18.90
2022-08-11T02:07:59.050Z,18.70
2022-08-11T02:10:59.396Z,18.70
2022-08-11T02:13:37.810Z,18.60
2022-08-11T02:16:17.757Z,18.50
2022-08-11T02:19:10.858Z,18.50
2022-08-11T02:22:04.294Z,18.50
2022-08-11T02:24:42.280Z,18.40
2022-08-11T02:27:19.500Z,18.40
2022-08-11T02:29:56.502Z,18.40
2022-08-11T02:32:48.141Z,18.30
2022-08-11T02:35:23.270Z,18.40
2022-08-11T02:37:59.757Z,18.30
2022-08-11T02:40:35.375Z,18.20
2022-08-11T02:43:11.431Z,18.30
2022-08-11T02:45:49.105Z,18.20
2022-08-11T02:48:43.891Z,18.20
2022-08-11T02:51:24.557Z,18.10
2022-08-11T02:54:00.657Z,18.10
2022-08-11T02:56:44.616Z,18.00
2022-08-11T02:59:43.579Z,18.00
2022-08-11T03:02:20.756Z,18.00
2022-08-11T03:05:01.359Z,17.90
2022-08-11T03:07:35.735Z,17.90
2022-08-11T03:10:11.262Z,17.80
2022-08-11T03:13:05.687Z,17.80
2022-08-11T03:16:14.475Z,17.80
2022-08-11T03:18:51.369Z,17.80
2022-08-11T03:21:24.142Z,17.70
2022-08-11T03:24:20.008Z,17.70
2022-08-11T03:27:05.939Z,17.70
2022-08-11T03:29:38.541Z,17.60
2022-08-11T03:32:20.004Z,17.60
2022-08-11T03:34:50.695Z,17.60
2022-08-11T03:37:51.832Z,17.50
2022-08-11T03:42:02.907Z,17.50
2022-08-11T03:44:11.402Z,17.50
2022-08-11T03:46:57.408Z,17.50
2022-08-11T03:49:39.203Z,17.50
2022-08-11T03:52:17.296Z,17.40
2022-08-11T03:54:55.398Z,17.40
2022-08-11T03:58:06.111Z,17.40
2022-08-11T04:00:58.177Z,17.40
2022-08-11T04:03:59.103Z,17.40
2022-08-11T04:07:07.775Z,17.40
2022-08-11T04:10:23.612Z,17.40
2022-08-11T04:13:14.197Z,17.40
2022-08-11T04:16:12.009Z,17.40
2022-08-11T04:19:20.564Z,17.40
2022-08-11T04:22:23.241Z,17.50
2022-08-11T04:25:14.512Z,17.50
2022-08-11T04:28:00.270Z,17.60
2022-08-11T04:30:42.640Z,17.60
2022-08-11T04:33:56.573Z,17.60
2022-08-11T04:37:05.486Z,17.70
2022-08-11T04:39:59.365Z,17.70
2022-08-11T04:43:22.315Z,17.70
2022-08-11T04:46:10.398Z,17.90
2022-08-11T04:49:24.193Z,18.00
2022-08-11T04:52:37.469Z,18.10
2022-08-11T04:55:55.546Z,18.10
2022-08-11T04:59:02.586Z,18.20
2022-08-11T05:01:43.458Z,18.40
2022-08-11T05:04:51.872Z,18.60
2022-08-11T05:08:02.733Z,18.70
2022-08-11T05:10:55.037Z,18.80
2022-08-11T05:13:46.534Z,18.80
2022-08-11T05:16:37.052Z,18.80
2022-08-11T05:19:23.392Z,18.90
2022-08-11T05:22:13.709Z,19.00
2022-08-11T05:25:02.686Z,19.00
2022-08-11T05:27:54.761Z,19.10
2022-08-11T05:30:46.449Z,19.10
2022-08-11T05:33:39.727Z,19.20
2022-08-11T05:36:13.358Z,19.30
2022-08-11T05:39:07.793Z,19.30
2022-08-11T05:41:53.672Z,19.40
2022-08-11T05:44:40.669Z,19.40
2022-08-11T05:47:26.999Z,19.50
2022-08-11T05:50:13.588Z,19.70
2022-08-11T05:53:04.776Z,19.70
2022-08-11T05:56:02.641Z,19.70
2022-08-11T05:58:42.399Z,19.80
2022-08-11T06:01:14.300Z,19.90
2022-08-11T06:04:04.135Z,19.90
2022-08-11T06:06:33.009Z,20.00
2022-08-11T06:09:02.070Z,20.10
2022-08-11T06:11:43.603Z,20.30
2022-08-11T06:14:13.667Z,20.30
2022-08-11T06:16:44.313Z,20.30
2022-08-11T06:19:13.096Z,20.40
2022-08-11T06:21:46.278Z,20.50
2022-08-11T06:24:16.543Z,20.60
2022-08-11T06:27:11.249Z,20.70
2022-08-11T06:29:47.917Z,20.80
2022-08-11T06:32:18.599Z,20.90
2022-08-11T06:35:02.244Z,21.10
2022-08-11T06:37:42.222Z,21.20
2022-08-11T06:40:13.888Z,21.40
2022-08-11T06:42:52.582Z,21.50
2022-08-11T06:45:31.168Z,21.70
2022-08-11T06:48:02.878Z,21.80
2022-08-11T06:50:50.174Z,21.90
2022-08-11T06:53:20.456Z,22.00
2022-08-11T06:56:08.355Z,22.10
2022-08-11T06:58:57.295Z,22.20
2022-08-11T07:01:37.949Z,22.30
2022-08-11T07:04:10.172Z,22.40
2022-08-11T07:07:11.849Z,22.50
2022-08-11T07:10:19.094Z,22.80
2022-08-11T07:13:08.033Z,24.60
2022-08-11T07:16:12.928Z,27.40
2022-08-11T07:18:52.809Z,29.60
2022-08-11T07:22:02.716Z,31.30
2022-08-11T07:24:59.495Z,32.50
2022-08-11T07:27:53.238Z,34.10
2022-08-11T07:30:21.596Z,34.80
2022-08-11T07:32:53.271Z,35.10
2022-08-11T07:38:01.699Z,35.70
2022-08-11T07:40:31.080Z,36.90
2022-08-11T07:43:01.173Z,36.40
2022-08-11T07:45:47.979Z,36.50
2022-08-11T07:48:34.976Z,36.50
2022-08-11T07:51:21.431Z,36.00
2022-08-11T07:53:58.634Z,36.40
2022-08-11T07:56:54.071Z,36.90
2022-08-11T08:00:00.574Z,36.50
2022-08-11T08:02:58.612Z,36.90
2022-08-11T08:05:44.604Z,37.40
2022-08-11T08:08:32.909Z,37.30
2022-08-11T08:11:27.449Z,37.60
2022-08-11T08:14:14.236Z,38.40
2022-08-11T08:17:01.043Z,38.90
2022-08-11T08:19:30.147Z,39.30
2022-08-11T08:22:06.146Z,39.00
2022-08-11T08:24:47.908Z,38.90
2022-08-11T08:27:18.309Z,38.50
2022-08-11T08:30:04.520Z,38.20
2022-08-11T08:32:35.087Z,38.50
2022-08-11T08:35:05.627Z,38.20
2022-08-11T08:37:46.782Z,38.90
2022-08-11T08:40:16.360Z,39.10
2022-08-11T08:42:51.436Z,39.60
2022-08-11T09:29:38.644Z,37.50
2022-08-11T09:32:08.801Z,36.40
2022-08-11T09:34:38.236Z,36.90
2022-08-11T09:37:53.555Z,36.80
2022-08-11T09:40:31.432Z,36.60
2022-08-11T09:43:22.359Z,36.10
2022-08-11T09:45:54.078Z,37.00
2022-08-11T09:48:24.968Z,37.50
2022-08-11T09:50:55.443Z,38.50
2022-08-11T09:53:37.223Z,38.00
2022-08-11T09:56:29.831Z,37.40
2022-08-11T09:58:59.035Z,37.70
2022-08-11T10:01:31.793Z,37.20
2022-08-11T10:04:04.374Z,36.90
2022-08-11T10:06:53.947Z,36.80
2022-08-11T10:09:25.473Z,37.00
2022-08-11T10:11:58.011Z,37.70
2022-08-11T10:14:45.372Z,37.50
2022-08-11T10:17:16.993Z,36.60
2022-08-11T10:20:03.946Z,36.30
2022-08-11T10:22:52.891Z,36.80
2022-08-11T10:25:39.330Z,37.10
2022-08-11T10:28:30.677Z,37.30
2022-08-11T10:31:16.447Z,37.70
2022-08-11T10:34:03.752Z,38.30
2022-08-11T10:36:34.507Z,37.70
2022-08-11T10:39:05.158Z,37.00
2022-08-11T10:42:02.826Z,36.20
2022-08-11T10:44:39.682Z,34.60
2022-08-11T10:47:29.403Z,33.40
2022-08-11T10:50:17.427Z,33.10
2022-08-11T10:53:06.910Z,32.50
2022-08-11T10:55:53.935Z,32.40
2022-08-11T10:58:44.465Z,32.30
2022-08-11T11:01:13.338Z,32.10
2022-08-11T11:03:42.821Z,32.00
2022-08-11T11:06:28.212Z,32.00
2022-08-11T11:09:04.055Z,31.90
2022-08-11T11:11:56.173Z,31.80
2022-08-11T11:14:49.205Z,31.50
2022-08-11T11:17:43.210Z,31.50
2022-08-11T11:20:36.039Z,31.70
2022-08-11T11:23:07.224Z,31.60
2022-08-11T11:26:06.547Z,31.30
2022-08-11T11:28:52.825Z,31.00
2022-08-11T11:31:33.307Z,30.90
2022-08-11T11:34:15.972Z,31.10
2022-08-11T11:36:48.887Z,31.20
2022-08-11T11:39:22.056Z,31.20
2022-08-11T11:41:51.795Z,31.00
2022-08-11T11:44:22.871Z,31.10
2022-08-11T11:46:52.592Z,31.20
2022-08-11T11:51:53.856Z,31.20
2022-08-11T11:54:27.568Z,31.20
2022-08-11T11:56:57.641Z,31.30
2022-08-11T11:59:46.592Z,31.30
2022-08-11T12:02:16.880Z,31.30
2022-08-11T12:04:48.713Z,31.40
2022-08-11T12:07:35.744Z,31.50
2022-08-11T12:10:05.976Z,31.40
2022-08-11T12:12:51.983Z,31.40
2022-08-11T12:16:06.509Z,31.40
2022-08-11T12:18:11.332Z,31.60
2022-08-11T12:20:39.951Z,31.50
2022-08-11T12:23:25.694Z,31.50
2022-08-11T12:26:28.441Z,31.50
2022-08-11T12:28:59.735Z,31.60
2022-08-11T12:31:30.094Z,31.60
2022-08-11T12:34:02.787Z,31.70
2022-08-11T12:36:35.942Z,31.90
2022-08-11T12:39:24.085Z,32.00
2022-08-11T12:42:13.664Z,32.00
2022-08-11T12:45:02.016Z,31.50
2022-08-11T12:48:57.182Z,31.40
2022-08-11T12:50:59.489Z,31.50
2022-08-11T12:53:32.668Z,31.60
2022-08-11T12:56:22.664Z,31.70
2022-08-11T12:58:53.776Z,31.70
2022-08-11T13:01:39.643Z,31.90
2022-08-11T13:04:25.420Z,32.10
2022-08-11T13:06:54.011Z,32.20
2022-08-11T13:09:24.050Z,32.10
2022-08-11T13:12:09.500Z,32.00
2022-08-11T13:14:38.852Z,32.20
2022-08-11T13:17:40.439Z,32.20
2022-08-11T13:20:13.438Z,32.10
2022-08-11T13:22:45.697Z,32.00
2022-08-11T13:25:16.207Z,31.90
2022-08-11T13:27:45.636Z,32.00
2022-08-11T13:30:35.793Z,31.80
2022-08-11T13:33:07.616Z,32.10
2022-08-11T13:35:36.938Z,32.20
2022-08-11T13:38:18.431Z,32.00
2022-08-11T13:40:56.444Z,32.20
2022-08-11T13:43:25.741Z,32.20
2022-08-11T13:46:16.742Z,32.10
2022-08-11T13:48:45.432Z,32.30
2022-08-11T13:51:34.243Z,32.30
2022-08-11T13:54:05.719Z,32.20
2022-08-11T13:56:35.086Z,32.00
2022-08-11T13:59:05.123Z,32.00
2022-08-11T14:02:21.493Z,32.10
2022-08-11T14:04:33.326Z,32.30
2022-08-11T14:07:06.076Z,32.20
2022-08-11T14:09:38.128Z,32.10
2022-08-11T14:12:30.110Z,32.30
2022-08-11T14:15:08.103Z,32.30
2022-08-11T14:17:48.150Z,32.20
2022-08-11T14:20:39.708Z,32.20
2022-08-11T14:23:07.996Z,32.20
2022-08-11T14:26:00.324Z,32.20
2022-08-11T14:28:33.639Z,32.10
2022-08-11T14:31:05.531Z,31.90
2022-08-11T14:33:58.921Z,32.00
2022-08-11T14:36:27.687Z,32.10
2022-08-11T14:38:56.535Z,31.90
2022-08-11T14:42:10.686Z,32.10
2022-08-11T14:44:47.773Z,32.00
2022-08-11T14:47:23.739Z,31.90
2022-08-11T14:50:10.111Z,32.10
2022-08-11T14:52:44.603Z,32.10
2022-08-11T14:55:31.658Z,32.10
2022-08-11T14:58:01.647Z,32.10
2022-08-11T15:00:31.013Z,32.20
2022-08-11T15:03:12.959Z,32.20
2022-08-11T15:05:56.561Z,31.90
2022-08-11T15:08:46.790Z,31.80
2022-08-11T15:11:34.290Z,31.90
2022-08-11T15:14:04.875Z,32.00
2022-08-11T15:16:51.115Z,32.10
2022-08-11T15:19:21.960Z,32.00
2022-08-11T15:22:08.929Z,32.10
2022-08-11T15:24:39.184Z,32.10
2022-08-11T15:27:30.203Z,32.00
2022-08-11T15:30:32.149Z,32.00
2022-08-11T15:33:24.218Z,31.90
2022-08-11T15:36:11.546Z,32.00
2022-08-11T15:38:45.815Z,31.90
2022-08-11T15:41:46.477Z,31.70
2022-08-11T15:45:08.585Z,31.70
2022-08-11T15:47:41.801Z,31.70
2022-08-11T15:50:14.356Z,31.70
2022-08-11T15:52:50.716Z,31.60
2022-08-11T15:55:20.799Z,31.50
2022-08-11T15:58:09.362Z,31.50
2022-08-11T16:01:04.379Z,31.50
2022-08-11T16:04:08.191Z,31.50
2022-08-11T16:06:43.973Z,31.40
2022-08-11T16:09:19.029Z,31.30
2022-08-11T16:11:49.847Z,31.30
2022-08-11T16:14:37.426Z,31.20
2022-08-11T16:17:07.991Z,31.20
2022-08-11T16:19:38.014Z,31.10
2022-08-11T16:22:10.105Z,31.10
2022-08-11T16:27:05.449Z,31.10
2022-08-11T16:27:38.109Z,31.10
2022-08-11T16:30:08.283Z,31.10
2022-08-11T16:32:39.260Z,31.00
2022-08-11T16:35:28.841Z,30.90
2022-08-11T16:38:15.865Z,30.80
2022-08-11T16:40:45.771Z,30.80
2022-08-11T16:43:35.826Z,30.60
2022-08-11T16:46:24.393Z,30.60
2022-08-11T16:48:53.736Z,30.50
2022-08-11T16:51:22.862Z,30.50
2022-08-11T16:54:04.750Z,30.50
2022-08-11T16:56:38.350Z,30.50
2022-08-11T16:59:16.709Z,30.50
2022-08-11T17:01:53.032Z,30.60
2022-08-11T17:04:47.047Z,30.60
2022-08-11T17:07:40.356Z,30.50
2022-08-11T17:10:51.226Z,30.50
2022-08-11T17:13:24.782Z,30.30
2022-08-11T17:16:08.090Z,30.30
2022-08-11T17:18:43.199Z,30.30
2022-08-11T17:21:14.857Z,30.30
2022-08-11T17:23:47.009Z,30.20
2022-08-11T17:26:24.289Z,30.20
2022-08-11T17:28:56.808Z,30.10
2022-08-11T17:31:46.065Z,30.10
2022-08-11T17:34:32.464Z,30.00
2022-08-11T17:37:01.206Z,30.00
2022-08-11T17:39:31.785Z,30.00
2022-08-11T17:42:22.501Z,29.90
2022-08-11T17:45:09.684Z,29.90
2022-08-11T17:47:58.505Z,29.90
2022-08-11T17:50:28.513Z,29.80
2022-08-11T17:53:15.450Z,29.70
2022-08-11T17:56:02.064Z,29.70
2022-08-11T17:58:48.553Z,29.60
2022-08-11T18:01:19.998Z,29.60
2022-08-11T18:03:53.036Z,29.50
2022-08-11T18:06:33.626Z,29.40
2022-08-11T18:09:23.743Z,29.40
2022-08-11T18:12:13.067Z,29.40
2022-08-11T18:15:02.246Z,29.20
2022-08-11T18:17:47.841Z,29.10
2022-08-11T18:20:35.133Z,29.00
2022-08-11T18:23:46.017Z,29.00
2022-08-11T18:26:31.699Z,28.90
2022-08-11T18:29:18.691Z,28.80
2022-08-11T18:32:08.226Z,28.70
2022-08-11T18:34:59.223Z,28.50
2022-08-11T18:37:50.952Z,28.40
2022-08-11T18:40:40.262Z,28.30
2022-08-11T18:43:28.405Z,28.10
2022-08-11T18:46:19.740Z,28.00
2022-08-11T18:49:11.809Z,28.00
2022-08-11T18:52:04.457Z,27.80
2022-08-11T18:54:55.512Z,27.60
2022-08-11T18:57:53.850Z,27.30
2022-08-11T19:00:43.880Z,27.20
2022-08-11T19:03:31.248Z,27.00
2022-08-11T19:06:38.849Z,26.90
2022-08-11T19:09:28.918Z,26.90
2022-08-11T19:12:17.084Z,26.90
2022-08-11T19:15:04.434Z,27.00
2022-08-11T19:17:52.830Z,26.90
2022-08-11T19:20:44.109Z,26.90
2022-08-11T19:23:31.613Z,27.00
2022-08-11T19:26:19.079Z,27.00
2022-08-11T19:29:08.820Z,27.00
2022-08-11T19:32:15.593Z,26.90
2022-08-11T19:35:01.489Z,26.80
2022-08-11T19:37:48.497Z,26.70
2022-08-11T19:40:35.406Z,26.60
2022-08-11T19:43:25.809Z,26.70
2022-08-11T19:46:17.182Z,26.60
2022-08-11T19:49:05.270Z,26.50
2022-08-11T19:51:54.035Z,26.40
2022-08-11T19:54:44.285Z,26.40
2022-08-11T19:57:35.756Z,26.50
2022-08-11T20:00:30.102Z,26.40
2022-08-11T20:03:19.668Z,26.30
2022-08-11T20:06:06.651Z,26.30
2022-08-11T20:08:58.327Z,26.20
2022-08-11T20:11:48.848Z,26.10
2022-08-11T20:14:36.579Z,26.10
2022-08-11T20:17:23.969Z,26.00
2022-08-11T20:20:12.734Z,26.00
2022-08-11T20:22:59.159Z,25.90
2022-08-11T20:25:46.924Z,25.70
2022-08-11T20:28:36.039Z,25.70
2022-08-11T20:31:23.000Z,25.50
2022-08-11T20:34:09.033Z,25.40
2022-08-11T20:36:57.720Z,25.40
2022-08-11T20:39:44.301Z,25.40
2022-08-11T20:42:31.297Z,25.40
2022-08-11T20:45:23.614Z,25.40
2022-08-11T20:48:14.547Z,25.30
2022-08-11T20:51:06.130Z,25.20
2022-08-11T20:53:56.351Z,25.10
2022-08-11T20:56:43.981Z,25.10
2022-08-11T20:59:33.337Z,25.00
2022-08-11T21:02:26.192Z,24.90
2022-08-11T21:05:19.475Z,24.80
2022-08-11T21:08:25.344Z,24.70
2022-08-11T21:11:14.082Z,24.60
2022-08-11T21:14:14.046Z,24.50
2022-08-11T21:17:04.445Z,24.50
2022-08-11T21:20:18.384Z,24.40
2022-08-11T21:23:18.456Z,24.30
2022-08-11T21:26:15.253Z,24.30
2022-08-11T21:29:02.269Z,24.20
2022-08-11T21:31:50.822Z,24.20
2022-08-11T21:34:39.881Z,24.10
2022-08-11T21:37:27.186Z,24.10
2022-08-11T21:40:17.027Z,24.00
2022-08-11T21:43:07.145Z,23.90
2022-08-11T21:45:55.666Z,23.80
2022-08-11T21:48:42.880Z,23.70
2022-08-11T21:51:28.595Z,23.60
2022-08-11T21:54:16.256Z,23.50
2022-08-11T21:57:02.461Z,23.40
2022-08-11T22:00:00.657Z,23.30
2022-08-11T22:02:52.232Z,23.30
2022-08-11T22:05:39.875Z,23.20
2022-08-11T22:08:26.788Z,23.10
2022-08-11T22:11:13.211Z,23.00
2022-08-11T22:14:05.756Z,22.90
2022-08-11T22:16:55.344Z,22.90
2022-08-11T22:19:42.567Z,22.80
2022-08-11T22:22:32.074Z,22.80
2022-08-11T22:25:21.259Z,22.70
2022-08-11T22:28:08.723Z,22.70
2022-08-11T22:30:56.406Z,22.60
2022-08-11T22:34:02.227Z,22.60
2022-08-11T22:36:49.664Z,22.60
2022-08-11T22:39:36.136Z,22.50
2022-08-11T22:42:33.015Z,22.40
2022-08-11T22:45:19.853Z,22.40
2022-08-11T22:48:07.828Z,22.20
2022-08-11T22:50:55.490Z,22.10
2022-08-11T22:53:57.470Z,22.10
2022-08-11T22:56:46.641Z,22.00
2022-08-11T22:59:34.142Z,21.90
2022-08-11T23:02:20.807Z,21.90
2022-08-11T23:05:07.861Z,21.80
2022-08-11T23:07:56.124Z,21.70
2022-08-11T23:10:42.535Z,21.70
2022-08-11T23:13:28.833Z,21.60
2022-08-11T23:16:15.239Z,21.50
2022-08-11T23:19:01.506Z,21.50
2022-08-11T23:21:47.965Z,21.40
2022-08-11T23:24:35.857Z,21.40
2022-08-11T23:27:22.625Z,21.30
2022-08-11T23:30:10.824Z,21.30
2022-08-11T23:32:58.277Z,21.20
2022-08-11T23:35:53.756Z,21.20
2022-08-11T23:38:43.951Z,21.20
2022-08-11T23:41:33.035Z,21.20
2022-08-11T23:44:20.410Z,21.20
2022-08-11T23:47:08.290Z,21.10
2022-08-11T23:49:55.742Z,21.10
2022-08-11T23:52:45.929Z,21.10
2022-08-11T23:55:31.538Z,21.10
2022-08-11T23:58:18.489Z,21.10
